sensor_id;sensor_type;location;lat;lon;timestamp;P1;durP1;ratioP1;P2;durP2;ratioP2
5549;SDS011;2798;42.716;23.256;2022-12-29T03:14:48;16.40;;;11.70;;
5549;SDS011;2798;42.716;23.256;2022-12-29T03:17:39;16.00;;;11.80;;
5549;SDS011;2798;42.716;23.256;2022-12-29T03:20:06;17.47;;;13.00;;
5549;SDS011;2798;42.716;23.256;2022-12-29T03:22:34;20.30;;;12.70;;
5549;SDS011;2798;42.716;23.256;2022-12-29T03:25:15;21.93;;;13.40;;
5549;SDS011;2798;42.716;23.256;2022-12-29T03:27:47;19.10;;;13.83;;
5549;SDS011;2798;42.716;23.256;2022-12-29T03:30:13;18.80;;;12.80;;
5549;SDS011;2798;42.716;23.256;2022-12-29T03:32:42;20.27;;;13.23;;
5549;SDS011;2798;42.716;23.256;2022-12-29T03:35:07;20.13;;;13.67;;
5549;SDS011;2798;42.716;23.256;2022-12-29T03:37:38;22.53;;;14.63;;
5549;SDS011;2798;42.716;23.256;2022-12-29T03:40:06;19.27;;;13.67;;
5549;SDS011;2798;42.716;23.256;2022-12-29T03:42:32;21.40;;;13.33;;
5549;SDS011;2798;42.716;23.256;2022-12-29T03:44:58;18.30;;;13.90;;
5549;SDS011;2798;42.716;23.256;2022-12-29T03:47:24;20.87;;;14.77;;
5549;SDS011;2798;42.716;23.256;2022-12-29T03:49:50;22.53;;;13.37;;
5549;SDS011;2798;42.716;23.256;2022-12-29T03:52:15;20.77;;;13.40;;
5549;SDS011;2798;42.716;23.256;2022-12-29T03:54:41;19.23;;;13.77;;
5549;SDS011;2798;42.716;23.256;2022-12-29T03:57:06;21.00;;;15.13;;
5549;SDS011;2798;42.716;23.256;2022-12-29T03:59:31;21.70;;;13.83;;
5549;SDS011;2798;42.716;23.256;2022-12-29T04:01:57;21.57;;;13.53;;
5549;SDS011;2798;42.716;23.256;2022-12-29T04:04:22;19.83;;;13.30;;
5549;SDS011;2798;42.716;23.256;2022-12-29T04:06:47;21.10;;;13.70;;
5549;SDS011;2798;42.716;23.256;2022-12-29T04:09:12;23.17;;;13.60;;
5549;SDS011;2798;42.716;23.256;2022-12-29T04:11:38;23.70;;;13.90;;
5549;SDS011;2798;42.716;23.256;2022-12-29T04:14:03;22.73;;;13.07;;
5549;SDS011;2798;42.716;23.256;2022-12-29T04:16:28;21.90;;;13.90;;
5549;SDS011;2798;42.716;23.256;2022-12-29T04:18:54;20.57;;;14.07;;
5549;SDS011;2798;42.716;23.256;2022-12-29T04:21:19;20.70;;;13.10;;
5549;SDS011;2798;42.716;23.256;2022-12-29T04:23:44;18.87;;;12.37;;
5549;SDS011;2798;42.716;23.256;2022-12-29T04:26:09;22.30;;;12.10;;
5549;SDS011;2798;42.716;23.256;2022-12-29T04:28:35;18.57;;;12.20;;
5549;SDS011;2798;42.716;23.256;2022-12-29T04:31:01;17.43;;;12.70;;
5549;SDS011;2798;42.716;23.256;2022-12-29T04:33:26;21.17;;;12.60;;
5549;SDS011;2798;42.716;23.256;2022-12-29T04:35:51;21.10;;;13.57;;
5549;SDS011;2798;42.716;23.256;2022-12-29T04:38:19;16.47;;;12.20;;
5549;SDS011;2798;42.716;23.256;2022-12-29T04:40:44;20.03;;;13.07;;
5549;SDS011;2798;42.716;23.256;2022-12-29T04:43:09;22.83;;;13.00;;
5549;SDS011;2798;42.716;23.256;2022-12-29T04:45:35;20.83;;;14.40;;
5549;SDS011;2798;42.716;23.256;2022-12-29T04:48:00;24.87;;;14.37;;
5549;SDS011;2798;42.716;23.256;2022-12-29T04:50:27;17.70;;;13.30;;
5549;SDS011;2798;42.716;23.256;2022-12-29T04:52:52;23.63;;;14.57;;
5549;SDS011;2798;42.716;23.256;2022-12-29T04:55:17;21.83;;;14.87;;
5549;SDS011;2798;42.716;23.256;2022-12-29T04:57:43;20.30;;;13.30;;
5549;SDS011;2798;42.716;23.256;2022-12-29T05:00:08;19.43;;;13.97;;
5549;SDS011;2798;42.716;23.256;2022-12-29T05:02:34;22.37;;;13.60;;
5549;SDS011;2798;42.716;23.256;2022-12-29T05:04:59;19.77;;;15.00;;
5549;SDS011;2798;42.716;23.256;2022-12-29T05:07:25;25.63;;;14.83;;
5549;SDS011;2798;42.716;23.256;2022-12-29T05:09:50;22.20;;;14.63;;
5549;SDS011;2798;42.716;23.256;2022-12-29T05:12:15;22.37;;;14.87;;
5549;SDS011;2798;42.716;23.256;2022-12-29T05:14:40;26.80;;;14.70;;
5549;SDS011;2798;42.716;23.256;2022-12-29T05:17:05;19.90;;;14.07;;
5549;SDS011;2798;42.716;23.256;2022-12-29T05:19:31;22.07;;;14.60;;
5549;SDS011;2798;42.716;23.256;2022-12-29T05:21:57;21.30;;;14.60;;
5549;SDS011;2798;42.716;23.256;2022-12-29T05:24:22;22.20;;;15.30;;
5549;SDS011;2798;42.716;23.256;2022-12-29T05:26:47;18.37;;;13.80;;
5549;SDS011;2798;42.716;23.256;2022-12-29T05:29:12;20.10;;;14.10;;
5549;SDS011;2798;42.716;23.256;2022-12-29T05:31:38;19.70;;;14.63;;
5549;SDS011;2798;42.716;23.256;2022-12-29T05:34:03;18.80;;;14.00;;
5549;SDS011;2798;42.716;23.256;2022-12-29T05:36:28;19.60;;;13.50;;
5549;SDS011;2798;42.716;23.256;2022-12-29T05:38:54;19.77;;;13.97;;
5549;SDS011;2798;42.716;23.256;2022-12-29T05:44:03;27.37;;;15.20;;
5549;SDS011;2798;42.716;23.256;2022-12-29T05:46:28;21.43;;;14.67;;
5549;SDS011;2798;42.716;23.256;2022-12-29T05:48:54;19.67;;;14.30;;
5549;SDS011;2798;42.716;23.256;2022-12-29T05:51:19;21.83;;;14.47;;
5549;SDS011;2798;42.716;23.256;2022-12-29T05:53:44;22.60;;;14.07;;
5549;SDS011;2798;42.716;23.256;2022-12-29T05:56:09;20.10;;;13.90;;
5549;SDS011;2798;42.716;23.256;2022-12-29T05:58:35;25.87;;;15.37;;
5549;SDS011;2798;42.716;23.256;2022-12-29T06:01:00;27.73;;;16.50;;
5549;SDS011;2798;42.716;23.256;2022-12-29T06:03:25;25.83;;;16.10;;
5549;SDS011;2798;42.716;23.256;2022-12-29T06:05:51;23.60;;;15.23;;
5549;SDS011;2798;42.716;23.256;2022-12-29T06:08:16;23.40;;;15.33;;
5549;SDS011;2798;42.716;23.256;2022-12-29T06:10:41;21.83;;;14.23;;
5549;SDS011;2798;42.716;23.256;2022-12-29T06:13:06;25.70;;;15.50;;
5549;SDS011;2798;42.716;23.256;2022-12-29T06:15:32;22.77;;;15.20;;
5549;SDS011;2798;42.716;23.256;2022-12-29T06:17:58;22.33;;;14.67;;
5549;SDS011;2798;42.716;23.256;2022-12-29T06:20:23;26.40;;;16.20;;
5549;SDS011;2798;42.716;23.256;2022-12-29T06:22:48;29.43;;;18.90;;
5549;SDS011;2798;42.716;23.256;2022-12-29T06:25:14;24.40;;;16.03;;
5549;SDS011;2798;42.716;23.256;2022-12-29T06:27:39;21.77;;;14.90;;
5549;SDS011;2798;42.716;23.256;2022-12-29T06:30:04;24.67;;;17.00;;
5549;SDS011;2798;42.716;23.256;2022-12-29T06:32:30;24.93;;;15.97;;
5549;SDS011;2798;42.716;23.256;2022-12-29T06:34:55;23.60;;;17.33;;
5549;SDS011;2798;42.716;23.256;2022-12-29T06:37:20;26.90;;;17.60;;
5549;SDS011;2798;42.716;23.256;2022-12-29T06:39:46;25.87;;;17.00;;
5549;SDS011;2798;42.716;23.256;2022-12-29T06:42:11;24.20;;;16.97;;
5549;SDS011;2798;42.716;23.256;2022-12-29T06:44:36;26.47;;;15.83;;
5549;SDS011;2798;42.716;23.256;2022-12-29T06:47:01;26.83;;;17.80;;
5549;SDS011;2798;42.716;23.256;2022-12-29T06:49:27;26.27;;;16.90;;
5549;SDS011;2798;42.716;23.256;2022-12-29T06:51:52;29.20;;;16.43;;
5549;SDS011;2798;42.716;23.256;2022-12-29T06:54:17;27.40;;;16.80;;
5549;SDS011;2798;42.716;23.256;2022-12-29T06:56:42;26.80;;;15.60;;
5549;SDS011;2798;42.716;23.256;2022-12-29T06:59:08;25.60;;;16.60;;
5549;SDS011;2798;42.716;23.256;2022-12-29T07:01:34;23.30;;;16.77;;
5549;SDS011;2798;42.716;23.256;2022-12-29T07:04:00;22.60;;;15.20;;
5549;SDS011;2798;42.716;23.256;2022-12-29T07:06:26;27.43;;;16.70;;
5549;SDS011;2798;42.716;23.256;2022-12-29T07:08:51;22.30;;;15.50;;
5549;SDS011;2798;42.716;23.256;2022-12-29T07:11:19;27.03;;;16.80;;
5549;SDS011;2798;42.716;23.256;2022-12-29T07:13:45;28.17;;;16.30;;
5549;SDS011;2798;42.716;23.256;2022-12-29T07:16:10;23.90;;;17.30;;
5549;SDS011;2798;42.716;23.256;2022-12-29T07:18:35;22.97;;;16.10;;
5549;SDS011;2798;42.716;23.256;2022-12-29T07:21:01;26.60;;;17.57;;
5549;SDS011;2798;42.716;23.256;2022-12-29T07:23:26;27.77;;;17.23;;
5549;SDS011;2798;42.716;23.256;2022-12-29T07:25:58;28.33;;;17.03;;
5549;SDS011;2798;42.716;23.256;2022-12-29T07:28:24;24.50;;;16.37;;
5549;SDS011;2798;42.716;23.256;2022-12-29T07:30:49;22.00;;;14.70;;
5549;SDS011;2798;42.716;23.256;2022-12-29T07:33:14;20.17;;;14.40;;
5549;SDS011;2798;42.716;23.256;2022-12-29T07:35:39;19.77;;;13.90;;
5549;SDS011;2798;42.716;23.256;2022-12-29T07:38:05;28.37;;;14.53;;
5549;SDS011;2798;42.716;23.256;2022-12-29T07:40:30;19.70;;;13.67;;
5549;SDS011;2798;42.716;23.256;2022-12-29T07:42:55;17.93;;;13.47;;
5549;SDS011;2798;42.716;23.256;2022-12-29T07:45:20;18.43;;;13.13;;
5549;SDS011;2798;42.716;23.256;2022-12-29T07:47:49;18.03;;;13.37;;
5549;SDS011;2798;42.716;23.256;2022-12-29T07:50:15;21.17;;;13.47;;
5549;SDS011;2798;42.716;23.256;2022-12-29T07:52:40;18.63;;;13.17;;
5549;SDS011;2798;42.716;23.256;2022-12-29T07:55:05;19.23;;;13.27;;
5549;SDS011;2798;42.716;23.256;2022-12-29T07:57:31;20.17;;;13.40;;
5549;SDS011;2798;42.716;23.256;2022-12-29T08:00:14;18.10;;;13.07;;
5549;SDS011;2798;42.716;23.256;2022-12-29T08:02:40;20.27;;;13.20;;
5549;SDS011;2798;42.716;23.256;2022-12-29T08:05:05;18.20;;;13.40;;
5549;SDS011;2798;42.716;23.256;2022-12-29T08:07:31;22.83;;;13.90;;
5549;SDS011;2798;42.716;23.256;2022-12-29T08:09:56;18.33;;;13.00;;
5549;SDS011;2798;42.716;23.256;2022-12-29T08:12:21;20.27;;;12.73;;
5549;SDS011;2798;42.716;23.256;2022-12-29T08:14:46;21.20;;;13.40;;
5549;SDS011;2798;42.716;23.256;2022-12-29T08:17:11;17.47;;;13.77;;
5549;SDS011;2798;42.716;23.256;2022-12-29T08:19:37;20.20;;;13.90;;
5549;SDS011;2798;42.716;23.256;2022-12-29T08:22:02;19.63;;;12.83;;
5549;SDS011;2798;42.716;23.256;2022-12-29T08:24:28;27.03;;;13.60;;
5549;SDS011;2798;42.716;23.256;2022-12-29T08:26:53;21.53;;;13.70;;
5549;SDS011;2798;42.716;23.256;2022-12-29T08:29:18;19.17;;;13.50;;
5549;SDS011;2798;42.716;23.256;2022-12-29T08:31:44;21.80;;;15.63;;
5549;SDS011;2798;42.716;23.256;2022-12-29T08:34:10;19.53;;;14.87;;
5549;SDS011;2798;42.716;23.256;2022-12-29T08:36:35;17.67;;;13.03;;
5549;SDS011;2798;42.716;23.256;2022-12-29T08:39:01;20.57;;;14.20;;
5549;SDS011;2798;42.716;23.256;2022-12-29T08:41:26;19.93;;;13.20;;
5549;SDS011;2798;42.716;23.256;2022-12-29T08:43:51;18.90;;;14.07;;
5549;SDS011;2798;42.716;23.256;2022-12-29T08:46:17;23.10;;;16.07;;
5549;SDS011;2798;42.716;23.256;2022-12-29T08:48:42;22.67;;;15.83;;
5549;SDS011;2798;42.716;23.256;2022-12-29T08:51:07;20.50;;;14.90;;
5549;SDS011;2798;42.716;23.256;2022-12-29T08:53:33;21.47;;;14.17;;
5549;SDS011;2798;42.716;23.256;2022-12-29T08:55:59;24.17;;;15.10;;
5549;SDS011;2798;42.716;23.256;2022-12-29T08:58:25;19.67;;;14.10;;
5549;SDS011;2798;42.716;23.256;2022-12-29T09:00:54;24.87;;;15.20;;
5549;SDS011;2798;42.716;23.256;2022-12-29T09:03:20;22.80;;;15.60;;
5549;SDS011;2798;42.716;23.256;2022-12-29T09:05:49;21.60;;;15.27;;
5549;SDS011;2798;42.716;23.256;2022-12-29T09:08:14;23.23;;;16.33;;
5549;SDS011;2798;42.716;23.256;2022-12-29T09:10:40;22.27;;;14.70;;
5549;SDS011;2798;42.716;23.256;2022-12-29T09:13:05;25.80;;;17.30;;
5549;SDS011;2798;42.716;23.256;2022-12-29T09:15:30;25.27;;;17.03;;
5549;SDS011;2798;42.716;23.256;2022-12-29T09:17:55;26.93;;;15.87;;
5549;SDS011;2798;42.716;23.256;2022-12-29T09:20:21;23.77;;;14.67;;
5549;SDS011;2798;42.716;23.256;2022-12-29T09:22:46;24.07;;;15.83;;
5549;SDS011;2798;42.716;23.256;2022-12-29T09:25:12;23.57;;;14.97;;
5549;SDS011;2798;42.716;23.256;2022-12-29T09:27:37;24.00;;;16.73;;
5549;SDS011;2798;42.716;23.256;2022-12-29T09:30:03;24.90;;;15.50;;
5549;SDS011;2798;42.716;23.256;2022-12-29T09:32:28;23.77;;;16.93;;
5549;SDS011;2798;42.716;23.256;2022-12-29T09:34:54;25.03;;;16.27;;
5549;SDS011;2798;42.716;23.256;2022-12-29T09:37:19;23.67;;;16.13;;
5549;SDS011;2798;42.716;23.256;2022-12-29T09:39:44;26.00;;;16.80;;
5549;SDS011;2798;42.716;23.256;2022-12-29T09:42:13;21.77;;;15.43;;
5549;SDS011;2798;42.716;23.256;2022-12-29T09:47:27;22.20;;;15.80;;
5549;SDS011;2798;42.716;23.256;2022-12-29T09:49:54;22.63;;;15.97;;
5549;SDS011;2798;42.716;23.256;2022-12-29T09:54:51;24.57;;;16.20;;
5549;SDS011;2798;42.716;23.256;2022-12-29T09:57:19;23.07;;;16.20;;
5549;SDS011;2798;42.716;23.256;2022-12-29T09:59:46;20.67;;;15.77;;
5549;SDS011;2798;42.716;23.256;2022-12-29T10:02:16;23.70;;;16.43;;
5549;SDS011;2798;42.716;23.256;2022-12-29T10:04:45;26.63;;;15.27;;
5549;SDS011;2798;42.716;23.256;2022-12-29T10:07:14;22.80;;;15.97;;
5549;SDS011;2798;42.716;23.256;2022-12-29T10:25:19;22.03;;;14.80;;
5549;SDS011;2798;42.716;23.256;2022-12-29T10:27:48;25.10;;;16.67;;
5549;SDS011;2798;42.716;23.256;2022-12-29T10:30:14;20.23;;;14.23;;
5549;SDS011;2798;42.716;23.256;2022-12-29T10:32:43;24.90;;;15.87;;
5549;SDS011;2798;42.716;23.256;2022-12-29T10:35:11;26.10;;;17.70;;
5549;SDS011;2798;42.716;23.256;2022-12-29T10:42:53;25.40;;;15.67;;
5549;SDS011;2798;42.716;23.256;2022-12-29T10:45:19;22.60;;;15.30;;
5549;SDS011;2798;42.716;23.256;2022-12-29T10:47:53;28.10;;;15.70;;
5549;SDS011;2798;42.716;23.256;2022-12-29T10:50:20;26.47;;;15.43;;
5549;SDS011;2798;42.716;23.256;2022-12-29T10:52:46;28.00;;;16.90;;
5549;SDS011;2798;42.716;23.256;2022-12-29T10:58:06;21.90;;;15.60;;
5549;SDS011;2798;42.716;23.256;2022-12-29T11:00:34;22.40;;;16.30;;
5549;SDS011;2798;42.716;23.256;2022-12-29T11:03:08;29.23;;;16.67;;
5549;SDS011;2798;42.716;23.256;2022-12-29T11:05:37;26.13;;;15.63;;
5549;SDS011;2798;42.716;23.256;2022-12-29T11:08:09;24.30;;;15.30;;
5549;SDS011;2798;42.716;23.256;2022-12-29T11:13:11;24.40;;;15.33;;
5549;SDS011;2798;42.716;23.256;2022-12-29T11:15:40;24.87;;;15.27;;
5549;SDS011;2798;42.716;23.256;2022-12-29T11:18:07;24.23;;;15.60;;
5549;SDS011;2798;42.716;23.256;2022-12-29T11:20:41;26.67;;;16.60;;
5549;SDS011;2798;42.716;23.256;2022-12-29T11:28:31;30.17;;;17.57;;
5549;SDS011;2798;42.716;23.256;2022-12-29T11:31:01;27.00;;;18.60;;
5549;SDS011;2798;42.716;23.256;2022-12-29T11:33:37;28.77;;;18.83;;
5549;SDS011;2798;42.716;23.256;2022-12-29T11:38:35;25.50;;;17.77;;
5549;SDS011;2798;42.716;23.256;2022-12-29T11:41:01;28.00;;;17.73;;
5549;SDS011;2798;42.716;23.256;2022-12-29T11:43:31;22.67;;;15.53;;
5549;SDS011;2798;42.716;23.256;2022-12-29T11:46:00;27.57;;;14.80;;
5549;SDS011;2798;42.716;23.256;2022-12-29T11:48:29;24.67;;;16.07;;
5549;SDS011;2798;42.716;23.256;2022-12-29T11:50:55;20.73;;;14.83;;
5549;SDS011;2798;42.716;23.256;2022-12-29T11:53:25;21.30;;;14.33;;
5549;SDS011;2798;42.716;23.256;2022-12-29T11:55:58;21.07;;;14.10;;
5549;SDS011;2798;42.716;23.256;2022-12-29T11:58:30;26.57;;;14.20;;
5549;SDS011;2798;42.716;23.256;2022-12-29T12:00:57;21.90;;;12.80;;
5549;SDS011;2798;42.716;23.256;2022-12-29T12:03:25;23.90;;;14.37;;
5549;SDS011;2798;42.716;23.256;2022-12-29T12:08:27;20.03;;;13.37;;
5549;SDS011;2798;42.716;23.256;2022-12-29T12:10:59;19.87;;;13.57;;
5549;SDS011;2798;42.716;23.256;2022-12-29T12:13:31;28.23;;;13.60;;
5549;SDS011;2798;42.716;23.256;2022-12-29T12:16:00;17.27;;;12.00;;
5549;SDS011;2798;42.716;23.256;2022-12-29T12:18:49;18.83;;;12.97;;
5549;SDS011;2798;42.716;23.256;2022-12-29T12:26:20;18.30;;;12.93;;
5549;SDS011;2798;42.716;23.256;2022-12-29T12:33:50;23.33;;;13.10;;
5549;SDS011;2798;42.716;23.256;2022-12-29T12:59:06;23.93;;;13.03;;
5549;SDS011;2798;42.716;23.256;2022-12-29T13:04:05;23.50;;;13.20;;
5549;SDS011;2798;42.716;23.256;2022-12-29T13:06:50;24.23;;;13.23;;
5549;SDS011;2798;42.716;23.256;2022-12-29T13:19:48;27.57;;;17.07;;
5549;SDS011;2798;42.716;23.256;2022-12-29T13:32:21;28.10;;;16.70;;
5549;SDS011;2798;42.716;23.256;2022-12-29T13:38:22;27.43;;;17.83;;
5549;SDS011;2798;42.716;23.256;2022-12-29T13:40:41;27.40;;;16.57;;
5549;SDS011;2798;42.716;23.256;2022-12-29T13:43:08;27.77;;;15.90;;
5549;SDS011;2798;42.716;23.256;2022-12-29T13:45:34;28.33;;;16.50;;
5549;SDS011;2798;42.716;23.256;2022-12-29T13:48:15;29.10;;;16.77;;
5549;SDS011;2798;42.716;23.256;2022-12-29T13:50:42;29.00;;;17.40;;
5549;SDS011;2798;42.716;23.256;2022-12-29T13:55:50;26.70;;;17.60;;
5549;SDS011;2798;42.716;23.256;2022-12-29T14:00:58;29.50;;;19.57;;
5549;SDS011;2798;42.716;23.256;2022-12-29T14:06:12;29.67;;;19.23;;
5549;SDS011;2798;42.716;23.256;2022-12-29T14:08:39;29.80;;;18.90;;
5549;SDS011;2798;42.716;23.256;2022-12-29T14:11:09;28.97;;;19.60;;
5549;SDS011;2798;42.716;23.256;2022-12-29T14:13:36;29.40;;;18.40;;
5549;SDS011;2798;42.716;23.256;2022-12-29T14:16:02;34.63;;;18.97;;
5549;SDS011;2798;42.716;23.256;2022-12-29T14:18:29;25.23;;;17.13;;
5549;SDS011;2798;42.716;23.256;2022-12-29T14:21:38;26.90;;;17.43;;
5549;SDS011;2798;42.716;23.256;2022-12-29T14:23:46;29.40;;;17.23;;
5549;SDS011;2798;42.716;23.256;2022-12-29T14:26:12;29.37;;;17.83;;
5549;SDS011;2798;42.716;23.256;2022-12-29T14:28:47;28.43;;;16.30;;
5549;SDS011;2798;42.716;23.256;2022-12-29T14:36:35;27.43;;;14.30;;
5549;SDS011;2798;42.716;23.256;2022-12-29T14:39:01;23.93;;;14.70;;
5549;SDS011;2798;42.716;23.256;2022-12-29T14:41:30;25.10;;;15.00;;
5549;SDS011;2798;42.716;23.256;2022-12-29T14:44:19;33.23;;;16.90;;
5549;SDS011;2798;42.716;23.256;2022-12-29T14:49:14;29.80;;;17.90;;
5549;SDS011;2798;42.716;23.256;2022-12-29T14:51:41;31.07;;;19.47;;
5549;SDS011;2798;42.716;23.256;2022-12-29T14:56:51;36.67;;;22.47;;
5549;SDS011;2798;42.716;23.256;2022-12-29T14:59:16;40.87;;;21.90;;
5549;SDS011;2798;42.716;23.256;2022-12-29T15:01:46;40.00;;;22.07;;
5549;SDS011;2798;42.716;23.256;2022-12-29T15:04:23;37.70;;;20.50;;
5549;SDS011;2798;42.716;23.256;2022-12-29T15:06:50;33.63;;;19.57;;
5549;SDS011;2798;42.716;23.256;2022-12-29T15:09:30;30.07;;;19.33;;
5549;SDS011;2798;42.716;23.256;2022-12-29T15:14:33;31.33;;;18.33;;
5549;SDS011;2798;42.716;23.256;2022-12-29T15:17:00;28.10;;;18.30;;
5549;SDS011;2798;42.716;23.256;2022-12-29T15:19:26;30.37;;;17.90;;
5549;SDS011;2798;42.716;23.256;2022-12-29T15:21:52;34.27;;;19.97;;
5549;SDS011;2798;42.716;23.256;2022-12-29T15:24:17;34.70;;;20.80;;
5549;SDS011;2798;42.716;23.256;2022-12-29T15:26:44;34.33;;;21.70;;
5549;SDS011;2798;42.716;23.256;2022-12-29T15:31:54;37.50;;;23.30;;
5549;SDS011;2798;42.716;23.256;2022-12-29T15:34:38;40.73;;;22.53;;
5549;SDS011;2798;42.716;23.256;2022-12-29T15:37:27;37.73;;;23.93;;
5549;SDS011;2798;42.716;23.256;2022-12-29T15:39:53;43.57;;;24.30;;
5549;SDS011;2798;42.716;23.256;2022-12-29T15:42:34;38.37;;;24.17;;
5549;SDS011;2798;42.716;23.256;2022-12-29T15:45:05;40.57;;;23.97;;
5549;SDS011;2798;42.716;23.256;2022-12-29T15:47:30;40.67;;;24.40;;
5549;SDS011;2798;42.716;23.256;2022-12-29T15:50:04;35.03;;;23.10;;
5549;SDS011;2798;42.716;23.256;2022-12-29T15:52:30;36.50;;;23.47;;
5549;SDS011;2798;42.716;23.256;2022-12-29T15:54:56;42.93;;;24.20;;
5549;SDS011;2798;42.716;23.256;2022-12-29T15:57:24;38.67;;;24.90;;
5549;SDS011;2798;42.716;23.256;2022-12-29T15:59:50;38.30;;;23.30;;
5549;SDS011;2798;42.716;23.256;2022-12-29T16:02:15;39.47;;;25.80;;
5549;SDS011;2798;42.716;23.256;2022-12-29T16:04:40;44.57;;;25.90;;
5549;SDS011;2798;42.716;23.256;2022-12-29T16:07:50;43.10;;;28.03;;
5549;SDS011;2798;42.716;23.256;2022-12-29T16:09:56;42.73;;;27.90;;
5549;SDS011;2798;42.716;23.256;2022-12-29T16:12:23;41.30;;;26.00;;
5549;SDS011;2798;42.716;23.256;2022-12-29T16:14:50;40.50;;;26.27;;
5549;SDS011;2798;42.716;23.256;2022-12-29T16:17:17;42.03;;;26.23;;
5549;SDS011;2798;42.716;23.256;2022-12-29T16:19:55;47.07;;;28.77;;
5549;SDS011;2798;42.716;23.256;2022-12-29T16:24:49;52.17;;;29.87;;
5549;SDS011;2798;42.716;23.256;2022-12-29T16:27:36;43.47;;;23.40;;
5549;SDS011;2798;42.716;23.256;2022-12-29T16:30:21;48.50;;;26.27;;
5549;SDS011;2798;42.716;23.256;2022-12-29T16:32:48;55.53;;;32.90;;
5549;SDS011;2798;42.716;23.256;2022-12-29T16:37:39;62.53;;;38.60;;
5549;SDS011;2798;42.716;23.256;2022-12-29T16:42:48;54.60;;;32.40;;
5549;SDS011;2798;42.716;23.256;2022-12-29T16:47:42;50.80;;;33.00;;
5549;SDS011;2798;42.716;23.256;2022-12-29T16:50:11;63.63;;;35.63;;
5549;SDS011;2798;42.716;23.256;2022-12-29T16:52:37;55.93;;;33.80;;
5549;SDS011;2798;42.716;23.256;2022-12-29T16:55:02;63.00;;;36.10;;
5549;SDS011;2798;42.716;23.256;2022-12-29T16:57:29;61.83;;;38.03;;
5549;SDS011;2798;42.716;23.256;2022-12-29T16:59:59;77.50;;;41.87;;
5549;SDS011;2798;42.716;23.256;2022-12-29T17:02:25;70.83;;;44.03;;
5549;SDS011;2798;42.716;23.256;2022-12-29T17:04:52;76.03;;;44.97;;
5549;SDS011;2798;42.716;23.256;2022-12-29T17:07:22;82.77;;;44.50;;
5549;SDS011;2798;42.716;23.256;2022-12-29T17:09:47;87.50;;;48.60;;
5549;SDS011;2798;42.716;23.256;2022-12-29T17:12:17;92.00;;;50.93;;
5549;SDS011;2798;42.716;23.256;2022-12-29T17:14:44;91.83;;;51.23;;
5549;SDS011;2798;42.716;23.256;2022-12-29T17:19:54;89.07;;;55.37;;
5549;SDS011;2798;42.716;23.256;2022-12-29T17:22:21;106.93;;;58.87;;
5549;SDS011;2798;42.716;23.256;2022-12-29T17:24:49;104.33;;;56.40;;
5549;SDS011;2798;42.716;23.256;2022-12-29T17:27:19;98.77;;;54.20;;
5549;SDS011;2798;42.716;23.256;2022-12-29T17:29:45;100.27;;;55.07;;
5549;SDS011;2798;42.716;23.256;2022-12-29T17:32:12;82.67;;;48.67;;
5549;SDS011;2798;42.716;23.256;2022-12-29T17:34:38;86.93;;;48.90;;
5549;SDS011;2798;42.716;23.256;2022-12-29T17:37:09;84.10;;;47.53;;
5549;SDS011;2798;42.716;23.256;2022-12-29T17:39:34;77.43;;;46.80;;
5549;SDS011;2798;42.716;23.256;2022-12-29T17:42:00;84.70;;;44.50;;
5549;SDS011;2798;42.716;23.256;2022-12-29T17:44:25;80.37;;;43.93;;
5549;SDS011;2798;42.716;23.256;2022-12-29T17:46:50;79.87;;;43.73;;
5549;SDS011;2798;42.716;23.256;2022-12-29T17:49:16;68.97;;;40.60;;
5549;SDS011;2798;42.716;23.256;2022-12-29T17:51:42;74.40;;;42.40;;
5549;SDS011;2798;42.716;23.256;2022-12-29T17:54:13;70.50;;;42.87;;
5549;SDS011;2798;42.716;23.256;2022-12-29T17:56:41;83.13;;;43.57;;
5549;SDS011;2798;42.716;23.256;2022-12-29T17:59:10;89.27;;;44.03;;
5549;SDS011;2798;42.716;23.256;2022-12-29T18:01:36;80.00;;;44.00;;
5549;SDS011;2798;42.716;23.256;2022-12-29T18:04:01;72.70;;;44.27;;
5549;SDS011;2798;42.716;23.256;2022-12-29T18:06:26;77.60;;;44.57;;
5549;SDS011;2798;42.716;23.256;2022-12-29T18:08:51;70.90;;;43.80;;
5549;SDS011;2798;42.716;23.256;2022-12-29T18:11:20;82.17;;;46.87;;
5549;SDS011;2798;42.716;23.256;2022-12-29T18:13:46;77.30;;;43.27;;
5549;SDS011;2798;42.716;23.256;2022-12-29T18:16:11;77.70;;;43.40;;
5549;SDS011;2798;42.716;23.256;2022-12-29T18:18:36;77.60;;;42.10;;
5549;SDS011;2798;42.716;23.256;2022-12-29T18:21:02;92.90;;;46.60;;
5549;SDS011;2798;42.716;23.256;2022-12-29T18:23:28;98.10;;;46.50;;
5549;SDS011;2798;42.716;23.256;2022-12-29T18:28:24;82.50;;;45.67;;
5549;SDS011;2798;42.716;23.256;2022-12-29T18:30:50;85.10;;;45.97;;
5549;SDS011;2798;42.716;23.256;2022-12-29T18:33:16;82.73;;;44.00;;
5549;SDS011;2798;42.716;23.256;2022-12-29T18:35:51;82.03;;;46.30;;
5549;SDS011;2798;42.716;23.256;2022-12-29T18:38:18;84.77;;;44.70;;
5549;SDS011;2798;42.716;23.256;2022-12-29T18:40:44;76.07;;;43.60;;
5549;SDS011;2798;42.716;23.256;2022-12-29T18:43:11;76.30;;;43.40;;
5549;SDS011;2798;42.716;23.256;2022-12-29T18:45:37;77.77;;;44.23;;
5549;SDS011;2798;42.716;23.256;2022-12-29T18:48:02;76.73;;;43.70;;
5549;SDS011;2798;42.716;23.256;2022-12-29T18:50:27;79.60;;;43.70;;
5549;SDS011;2798;42.716;23.256;2022-12-29T18:52:53;81.50;;;43.40;;
5549;SDS011;2798;42.716;23.256;2022-12-29T18:55:20;73.43;;;42.07;;
5549;SDS011;2798;42.716;23.256;2022-12-29T18:57:46;78.07;;;45.07;;
5549;SDS011;2798;42.716;23.256;2022-12-29T19:00:12;79.10;;;42.73;;
5549;SDS011;2798;42.716;23.256;2022-12-29T19:02:38;85.27;;;44.90;;
5549;SDS011;2798;42.716;23.256;2022-12-29T19:05:03;78.80;;;43.73;;
5549;SDS011;2798;42.716;23.256;2022-12-29T19:07:29;80.80;;;45.60;;
5549;SDS011;2798;42.716;23.256;2022-12-29T19:09:55;72.30;;;41.13;;
5549;SDS011;2798;42.716;23.256;2022-12-29T19:12:21;81.87;;;42.40;;
5549;SDS011;2798;42.716;23.256;2022-12-29T19:14:46;69.50;;;41.43;;
5549;SDS011;2798;42.716;23.256;2022-12-29T19:17:12;93.13;;;53.57;;
5549;SDS011;2798;42.716;23.256;2022-12-29T19:19:37;97.70;;;54.80;;
5549;SDS011;2798;42.716;23.256;2022-12-29T19:22:03;85.07;;;45.90;;
5549;SDS011;2798;42.716;23.256;2022-12-29T19:24:28;80.27;;;45.70;;
5549;SDS011;2798;42.716;23.256;2022-12-29T19:26:53;80.70;;;44.43;;
5549;SDS011;2798;42.716;23.256;2022-12-29T19:29:19;75.30;;;43.73;;
5549;SDS011;2798;42.716;23.256;2022-12-29T19:31:44;83.80;;;44.13;;
5549;SDS011;2798;42.716;23.256;2022-12-29T19:34:13;83.33;;;44.90;;
5549;SDS011;2798;42.716;23.256;2022-12-29T19:36:39;78.90;;;43.93;;
5549;SDS011;2798;42.716;23.256;2022-12-29T19:39:04;77.90;;;44.93;;
5549;SDS011;2798;42.716;23.256;2022-12-29T19:41:30;75.83;;;42.90;;
5549;SDS011;2798;42.716;23.256;2022-12-29T19:43:55;74.30;;;43.73;;
5549;SDS011;2798;42.716;23.256;2022-12-29T19:46:21;73.20;;;44.93;;
5549;SDS011;2798;42.716;23.256;2022-12-29T19:48:47;73.07;;;43.97;;
5549;SDS011;2798;42.716;23.256;2022-12-29T19:51:13;79.10;;;45.70;;
5549;SDS011;2798;42.716;23.256;2022-12-29T19:53:42;70.57;;;42.30;;
5549;SDS011;2798;42.716;23.256;2022-12-29T19:56:08;79.07;;;44.97;;
5549;SDS011;2798;42.716;23.256;2022-12-29T19:58:34;79.00;;;44.40;;
5549;SDS011;2798;42.716;23.256;2022-12-29T20:01:04;82.63;;;45.40;;
5549;SDS011;2798;42.716;23.256;2022-12-29T20:03:30;81.10;;;46.17;;
5549;SDS011;2798;42.716;23.256;2022-12-29T20:05:55;73.23;;;43.87;;
5549;SDS011;2798;42.716;23.256;2022-12-29T20:08:20;79.43;;;43.47;;
5549;SDS011;2798;42.716;23.256;2022-12-29T20:10:54;78.40;;;43.60;;